LERT

Rota Naval Station Airport

Rota, Spain
TAF LERT 221400Z 2215/2224 31014KT 9999 SCT030 TEMPO 2215/2224 31016G28KT
Issued Valid From Valid To
Jan-22 @ 14:00 UTC
(3 hours ago)
Jan-22 @ 15:00 UTC
(2 hours ago)
Jan-23 @ 00:00 UTC
(in 7 hours)
Jan-22 @ 15:00 to Jan-23 @ 00:00
TAF LERT 221400Z 2215/2224 31014KT 9999 SCT030
Wind Visibility Clouds
310° at 14 knots 10,000+ meters
  • Scattered at 3,000' AGL
Temporary Jan-22 @ 15:00 to Jan-23 @ 00:00
TEMPO 2215/2224 31016G28KT
Wind
310° at 16 knots
 Gusting to 28 knots
TAF LERT 221400Z 2215/2224 31014KT 9999 SCT030 TEMPO 2215/2224 31016G28KT
Issued Jan-22 @ 14:00 UTC
(3 hours ago)
Valid From Jan-22 @ 15:00 UTC
(2 hours ago)
Valid To Jan-23 @ 00:00 UTC
(in 7 hours)
Jan-22 @ 15:00 - Jan-23 @ 00:00
Wind Visibility
310° at 14 knots 10,000+ meters
Clouds
  • Scattered at 3,000' AGL
Temporary Jan-22 @ 15:00 - Jan-23 @ 00:00
Wind
310° at 16 knots
 Gusting to 28 knots